sensor_id;sensor_type;location;lat;lon;timestamp;temperature;humidity
1329;DHT22;658;48.820;9.354;2024-01-11T00:02:31;22.70;30.40
1329;DHT22;658;48.820;9.354;2024-01-11T00:06:31;22.70;30.40
1329;DHT22;658;48.820;9.354;2024-01-11T00:10:32;22.70;30.40
1329;DHT22;658;48.820;9.354;2024-01-11T00:14:33;22.70;30.40
1329;DHT22;658;48.820;9.354;2024-01-11T00:18:33;22.70;30.30
1329;DHT22;658;48.820;9.354;2024-01-11T00:22:36;22.60;30.30
1329;DHT22;658;48.820;9.354;2024-01-11T00:26:37;22.60;30.20
1329;DHT22;658;48.820;9.354;2024-01-11T00:30:37;22.60;30.30
1329;DHT22;658;48.820;9.354;2024-01-11T00:34:38;22.60;30.20
1329;DHT22;658;48.820;9.354;2024-01-11T00:38:39;22.60;30.20
1329;DHT22;658;48.820;9.354;2024-01-11T00:42:42;22.60;30.10
1329;DHT22;658;48.820;9.354;2024-01-11T00:46:42;22.60;30.10
1329;DHT22;658;48.820;9.354;2024-01-11T00:50:43;22.60;30.10
1329;DHT22;658;48.820;9.354;2024-01-11T00:54:46;22.60;30.00
1329;DHT22;658;48.820;9.354;2024-01-11T00:58:46;22.60;30.00
1329;DHT22;658;48.820;9.354;2024-01-11T01:02:49;22.60;30.00
1329;DHT22;658;48.820;9.354;2024-01-11T01:06:49;22.60;30.10
1329;DHT22;658;48.820;9.354;2024-01-11T01:10:50;22.50;30.00
1329;DHT22;658;48.820;9.354;2024-01-11T01:14:51;22.50;30.00
1329;DHT22;658;48.820;9.354;2024-01-11T01:18:54;22.50;30.00
1329;DHT22;658;48.820;9.354;2024-01-11T01:22:55;22.50;30.00
1329;DHT22;658;48.820;9.354;2024-01-11T01:26:55;22.50;30.00
1329;DHT22;658;48.820;9.354;2024-01-11T01:30:56;22.50;30.00
1329;DHT22;658;48.820;9.354;2024-01-11T01:34:56;22.50;29.90
1329;DHT22;658;48.820;9.354;2024-01-11T01:39:00;22.50;30.00
1329;DHT22;658;48.820;9.354;2024-01-11T01:43:07;22.50;30.00
1329;DHT22;658;48.820;9.354;2024-01-11T01:47:10;22.50;30.50
1329;DHT22;658;48.820;9.354;2024-01-11T01:51:10;22.50;30.00
1329;DHT22;658;48.820;9.354;2024-01-11T01:55:12;22.50;30.00
1329;DHT22;658;48.820;9.354;2024-01-11T01:59:15;22.50;30.00
1329;DHT22;658;48.820;9.354;2024-01-11T02:03:18;22.40;30.40
1329;DHT22;658;48.820;9.354;2024-01-11T02:07:19;22.40;30.00
1329;DHT22;658;48.820;9.354;2024-01-11T02:11:21;22.40;30.00
1329;DHT22;658;48.820;9.354;2024-01-11T02:15:24;22.40;29.90
1329;DHT22;658;48.820;9.354;2024-01-11T02:19:27;22.40;29.90
1329;DHT22;658;48.820;9.354;2024-01-11T02:23:27;22.40;29.90
1329;DHT22;658;48.820;9.354;2024-01-11T02:27:29;22.40;29.90
1329;DHT22;658;48.820;9.354;2024-01-11T02:31:29;22.30;29.90
1329;DHT22;658;48.820;9.354;2024-01-11T02:35:31;22.30;29.90
1329;DHT22;658;48.820;9.354;2024-01-11T02:39:32;22.30;29.90
1329;DHT22;658;48.820;9.354;2024-01-11T02:43:33;22.30;29.90
1329;DHT22;658;48.820;9.354;2024-01-11T02:47:36;22.30;29.90
1329;DHT22;658;48.820;9.354;2024-01-11T02:51:39;22.30;29.90
1329;DHT22;658;48.820;9.354;2024-01-11T02:55:40;22.30;29.90
1329;DHT22;658;48.820;9.354;2024-01-11T02:59:41;22.20;29.80
1329;DHT22;658;48.820;9.354;2024-01-11T03:03:42;22.20;29.80
1329;DHT22;658;48.820;9.354;2024-01-11T03:07:43;22.20;29.80
1329;DHT22;658;48.820;9.354;2024-01-11T03:11:43;22.20;29.80
1329;DHT22;658;48.820;9.354;2024-01-11T03:15:44;22.20;29.80
1329;DHT22;658;48.820;9.354;2024-01-11T03:19:44;22.20;30.10
1329;DHT22;658;48.820;9.354;2024-01-11T03:23:45;22.10;29.80
1329;DHT22;658;48.820;9.354;2024-01-11T03:27:45;22.10;29.80
1329;DHT22;658;48.820;9.354;2024-01-11T03:31:48;22.10;29.80
1329;DHT22;658;48.820;9.354;2024-01-11T03:35:49;22.10;29.80
1329;DHT22;658;48.820;9.354;2024-01-11T03:39:49;22.10;29.80
1329;DHT22;658;48.820;9.354;2024-01-11T03:43:50;22.10;29.80
1329;DHT22;658;48.820;9.354;2024-01-11T03:47:53;22.10;29.80
1329;DHT22;658;48.820;9.354;2024-01-11T03:51:53;22.10;29.80
1329;DHT22;658;48.820;9.354;2024-01-11T03:55:56;22.10;29.80
1329;DHT22;658;48.820;9.354;2024-01-11T03:59:57;22.10;30.10
1329;DHT22;658;48.820;9.354;2024-01-11T04:03:59;22.10;29.70
1329;DHT22;658;48.820;9.354;2024-01-11T04:07:59;22.10;29.80
1329;DHT22;658;48.820;9.354;2024-01-11T04:12:03;22.10;29.80
1329;DHT22;658;48.820;9.354;2024-01-11T04:16:05;22.10;29.80
1329;DHT22;658;48.820;9.354;2024-01-11T04:20:07;22.20;29.80
1329;DHT22;658;48.820;9.354;2024-01-11T04:24:10;22.20;29.80
1329;DHT22;658;48.820;9.354;2024-01-11T04:28:13;22.20;29.80
1329;DHT22;658;48.820;9.354;2024-01-11T04:32:13;22.20;29.80
1329;DHT22;658;48.820;9.354;2024-01-11T04:36:14;22.30;29.80
1329;DHT22;658;48.820;9.354;2024-01-11T04:40:15;22.30;29.80
1329;DHT22;658;48.820;9.354;2024-01-11T04:44:15;22.30;29.70
1329;DHT22;658;48.820;9.354;2024-01-11T04:48:16;22.30;29.70
1329;DHT22;658;48.820;9.354;2024-01-11T04:52:16;22.30;29.70
1329;DHT22;658;48.820;9.354;2024-01-11T04:56:17;22.40;30.00
1329;DHT22;658;48.820;9.354;2024-01-11T05:00:18;22.40;29.60
1329;DHT22;658;48.820;9.354;2024-01-11T05:04:18;22.40;29.60
1329;DHT22;658;48.820;9.354;2024-01-11T05:08:19;22.40;29.60
1329;DHT22;658;48.820;9.354;2024-01-11T05:12:19;22.40;29.70
1329;DHT22;658;48.820;9.354;2024-01-11T05:16:22;22.40;29.60
1329;DHT22;658;48.820;9.354;2024-01-11T05:20:23;22.40;29.60
1329;DHT22;658;48.820;9.354;2024-01-11T05:24:23;22.40;29.60
1329;DHT22;658;48.820;9.354;2024-01-11T05:28:26;22.40;29.60
1329;DHT22;658;48.820;9.354;2024-01-11T05:32:27;22.40;29.50
1329;DHT22;658;48.820;9.354;2024-01-11T05:36:27;22.50;29.60
1329;DHT22;658;48.820;9.354;2024-01-11T05:40:28;22.50;29.50
1329;DHT22;658;48.820;9.354;2024-01-11T05:44:29;22.50;30.00
1329;DHT22;658;48.820;9.354;2024-01-11T05:48:29;22.50;29.60
1329;DHT22;658;48.820;9.354;2024-01-11T05:52:30;22.50;29.80
1329;DHT22;658;48.820;9.354;2024-01-11T05:56:31;22.50;30.20
1329;DHT22;658;48.820;9.354;2024-01-11T06:00:31;22.60;30.10
1329;DHT22;658;48.820;9.354;2024-01-11T06:04:32;22.60;30.10
1329;DHT22;658;48.820;9.354;2024-01-11T06:08:33;22.60;30.00
1329;DHT22;658;48.820;9.354;2024-01-11T06:12:33;22.70;29.80
1329;DHT22;658;48.820;9.354;2024-01-11T06:16:36;22.70;29.80
1329;DHT22;658;48.820;9.354;2024-01-11T06:20:36;22.60;29.80
1329;DHT22;658;48.820;9.354;2024-01-11T06:24:37;22.70;29.90
1329;DHT22;658;48.820;9.354;2024-01-11T06:28:38;22.70;30.00
1329;DHT22;658;48.820;9.354;2024-01-11T06:32:38;22.70;29.90
1329;DHT22;658;48.820;9.354;2024-01-11T06:36:41;22.80;29.90
1329;DHT22;658;48.820;9.354;2024-01-11T06:40:42;22.80;29.80
1329;DHT22;658;48.820;9.354;2024-01-11T06:44:43;22.90;29.80
1329;DHT22;658;48.820;9.354;2024-01-11T06:48:44;22.90;29.70
1329;DHT22;658;48.820;9.354;2024-01-11T06:52:47;22.90;29.70
1329;DHT22;658;48.820;9.354;2024-01-11T06:56:47;22.90;29.60
1329;DHT22;658;48.820;9.354;2024-01-11T07:00:49;22.90;29.70
1329;DHT22;658;48.820;9.354;2024-01-11T07:04:52;22.90;29.60
1329;DHT22;658;48.820;9.354;2024-01-11T07:08:53;22.90;29.60
1329;DHT22;658;48.820;9.354;2024-01-11T07:12:54;22.90;29.60
1329;DHT22;658;48.820;9.354;2024-01-11T07:16:54;22.90;29.70
1329;DHT22;658;48.820;9.354;2024-01-11T07:20:59;22.90;29.60
1329;DHT22;658;48.820;9.354;2024-01-11T07:25:00;22.90;29.50
1329;DHT22;658;48.820;9.354;2024-01-11T07:29:00;22.90;29.40
1329;DHT22;658;48.820;9.354;2024-01-11T07:33:03;22.90;29.40
1329;DHT22;658;48.820;9.354;2024-01-11T07:37:05;22.90;29.40
1329;DHT22;658;48.820;9.354;2024-01-11T07:41:05;22.90;29.90
1329;DHT22;658;48.820;9.354;2024-01-11T07:45:07;22.80;29.30
1329;DHT22;658;48.820;9.354;2024-01-11T07:49:09;22.90;29.60
1329;DHT22;658;48.820;9.354;2024-01-11T07:53:10;22.90;29.40
1329;DHT22;658;48.820;9.354;2024-01-11T07:57:11;22.90;29.60
1329;DHT22;658;48.820;9.354;2024-01-11T08:01:12;23.00;29.50
1329;DHT22;658;48.820;9.354;2024-01-11T08:05:15;23.00;29.50
1329;DHT22;658;48.820;9.354;2024-01-11T08:09:18;23.10;29.50
1329;DHT22;658;48.820;9.354;2024-01-11T08:13:19;23.00;29.40
1329;DHT22;658;48.820;9.354;2024-01-11T08:17:21;23.10;29.40
1329;DHT22;658;48.820;9.354;2024-01-11T08:21:22;23.10;29.60
1329;DHT22;658;48.820;9.354;2024-01-11T08:25:23;23.20;29.50
1329;DHT22;658;48.820;9.354;2024-01-11T08:29:23;23.20;29.40
1329;DHT22;658;48.820;9.354;2024-01-11T08:33:24;23.30;29.80
1329;DHT22;658;48.820;9.354;2024-01-11T08:37:27;23.30;29.70
1329;DHT22;658;48.820;9.354;2024-01-11T08:41:27;23.30;29.70
1329;DHT22;658;48.820;9.354;2024-01-11T08:45:28;23.40;29.60
1329;DHT22;658;48.820;9.354;2024-01-11T08:49:30;23.40;29.70
1329;DHT22;658;48.820;9.354;2024-01-11T08:53:30;23.40;29.70
1329;DHT22;658;48.820;9.354;2024-01-11T08:57:31;23.50;29.70
1329;DHT22;658;48.820;9.354;2024-01-11T09:01:32;23.50;29.80
1329;DHT22;658;48.820;9.354;2024-01-11T09:05:32;23.60;29.60
1329;DHT22;658;48.820;9.354;2024-01-11T09:09:33;23.60;29.50
1329;DHT22;658;48.820;9.354;2024-01-11T09:13:33;23.60;29.40
1329;DHT22;658;48.820;9.354;2024-01-11T09:17:36;23.60;29.30
1329;DHT22;658;48.820;9.354;2024-01-11T09:21:38;23.70;29.30
1329;DHT22;658;48.820;9.354;2024-01-11T09:25:39;23.70;29.10
1329;DHT22;658;48.820;9.354;2024-01-11T09:29:44;23.70;29.10
1329;DHT22;658;48.820;9.354;2024-01-11T09:33:44;23.80;29.20
1329;DHT22;658;48.820;9.354;2024-01-11T09:37:45;23.80;29.10
1329;DHT22;658;48.820;9.354;2024-01-11T09:41:54;23.90;29.00
1329;DHT22;658;48.820;9.354;2024-01-11T09:45:58;23.90;28.90
1329;DHT22;658;48.820;9.354;2024-01-11T09:49:59;24.00;28.90
1329;DHT22;658;48.820;9.354;2024-01-11T09:54:01;24.10;28.90
1329;DHT22;658;48.820;9.354;2024-01-11T09:58:03;24.10;28.80
1329;DHT22;658;48.820;9.354;2024-01-11T10:02:05;24.20;28.80
1329;DHT22;658;48.820;9.354;2024-01-11T10:06:08;24.20;28.70
1329;DHT22;658;48.820;9.354;2024-01-11T10:10:12;24.30;28.80
1329;DHT22;658;48.820;9.354;2024-01-11T10:14:15;24.30;28.80
1329;DHT22;658;48.820;9.354;2024-01-11T10:18:16;24.30;28.80
1329;DHT22;658;48.820;9.354;2024-01-11T10:22:16;24.40;28.80
1329;DHT22;658;48.820;9.354;2024-01-11T10:26:18;24.40;28.80
1329;DHT22;658;48.820;9.354;2024-01-11T10:30:19;24.50;28.80
1329;DHT22;658;48.820;9.354;2024-01-11T10:34:25;24.50;28.80
1329;DHT22;658;48.820;9.354;2024-01-11T10:38:26;24.60;28.90
1329;DHT22;658;48.820;9.354;2024-01-11T10:42:31;24.60;28.80
1329;DHT22;658;48.820;9.354;2024-01-11T10:46:33;24.70;28.80
1329;DHT22;658;48.820;9.354;2024-01-11T10:50:36;24.80;28.80
1329;DHT22;658;48.820;9.354;2024-01-11T10:54:41;24.80;28.70
1329;DHT22;658;48.820;9.354;2024-01-11T10:58:43;24.90;28.70
1329;DHT22;658;48.820;9.354;2024-01-11T11:02:45;25.00;28.60
1329;DHT22;658;48.820;9.354;2024-01-11T11:06:46;25.00;28.50
1329;DHT22;658;48.820;9.354;2024-01-11T11:10:48;25.10;28.60
1329;DHT22;658;48.820;9.354;2024-01-11T11:14:51;25.20;28.50
1329;DHT22;658;48.820;9.354;2024-01-11T11:18:56;25.30;28.40
1329;DHT22;658;48.820;9.354;2024-01-11T11:23:04;25.40;28.40
1329;DHT22;658;48.820;9.354;2024-01-11T11:27:06;25.40;28.10
1329;DHT22;658;48.820;9.354;2024-01-11T11:31:07;25.60;28.00
1329;DHT22;658;48.820;9.354;2024-01-11T11:35:08;25.70;28.00
1329;DHT22;658;48.820;9.354;2024-01-11T11:39:10;25.80;27.80
1329;DHT22;658;48.820;9.354;2024-01-11T11:43:15;25.90;27.70
1329;DHT22;658;48.820;9.354;2024-01-11T11:47:22;26.00;27.50
1329;DHT22;658;48.820;9.354;2024-01-11T11:51:23;26.10;27.50
1329;DHT22;658;48.820;9.354;2024-01-11T11:55:24;26.20;27.30
1329;DHT22;658;48.820;9.354;2024-01-11T11:59:25;26.30;27.10
1329;DHT22;658;48.820;9.354;2024-01-11T12:03:34;26.40;26.90
1329;DHT22;658;48.820;9.354;2024-01-11T12:07:38;26.50;26.80
1329;DHT22;658;48.820;9.354;2024-01-11T12:11:39;26.60;26.60
1329;DHT22;658;48.820;9.354;2024-01-11T12:15:40;26.70;26.50
1329;DHT22;658;48.820;9.354;2024-01-11T12:19:41;26.90;26.40
1329;DHT22;658;48.820;9.354;2024-01-11T12:23:43;26.90;26.20
1329;DHT22;658;48.820;9.354;2024-01-11T12:27:45;27.00;26.20
1329;DHT22;658;48.820;9.354;2024-01-11T12:31:48;27.10;26.20
1329;DHT22;658;48.820;9.354;2024-01-11T12:35:49;27.20;26.20
1329;DHT22;658;48.820;9.354;2024-01-11T12:39:57;27.30;26.20
1329;DHT22;658;48.820;9.354;2024-01-11T12:43:58;27.30;26.10
1329;DHT22;658;48.820;9.354;2024-01-11T12:48:00;27.20;26.10
1329;DHT22;658;48.820;9.354;2024-01-11T12:52:01;27.20;26.20
1329;DHT22;658;48.820;9.354;2024-01-11T12:56:03;27.20;26.10
1329;DHT22;658;48.820;9.354;2024-01-11T13:00:12;27.20;26.10
1329;DHT22;658;48.820;9.354;2024-01-11T13:04:13;27.20;26.20
1329;DHT22;658;48.820;9.354;2024-01-11T13:08:16;27.20;26.20
1329;DHT22;658;48.820;9.354;2024-01-11T13:12:17;27.20;26.30
1329;DHT22;658;48.820;9.354;2024-01-11T13:16:18;27.10;26.50
1329;DHT22;658;48.820;9.354;2024-01-11T13:20:19;27.00;26.70
1329;DHT22;658;48.820;9.354;2024-01-11T13:24:24;26.90;26.80
1329;DHT22;658;48.820;9.354;2024-01-11T13:28:30;26.90;26.90
1329;DHT22;658;48.820;9.354;2024-01-11T13:32:33;26.80;27.00
1329;DHT22;658;48.820;9.354;2024-01-11T13:36:35;26.70;27.20
1329;DHT22;658;48.820;9.354;2024-01-11T13:40:36;26.60;27.30
1329;DHT22;658;48.820;9.354;2024-01-11T13:44:41;26.50;27.40
1329;DHT22;658;48.820;9.354;2024-01-11T13:48:42;26.50;27.50
1329;DHT22;658;48.820;9.354;2024-01-11T13:52:45;26.40;27.50
1329;DHT22;658;48.820;9.354;2024-01-11T13:56:46;26.40;27.60
1329;DHT22;658;48.820;9.354;2024-01-11T14:00:47;26.30;27.60
1329;DHT22;658;48.820;9.354;2024-01-11T14:04:48;26.20;27.80
1329;DHT22;658;48.820;9.354;2024-01-11T14:08:50;26.10;27.70
1329;DHT22;658;48.820;9.354;2024-01-11T14:12:51;26.10;27.80
1329;DHT22;658;48.820;9.354;2024-01-11T14:16:54;26.00;27.80
1329;DHT22;658;48.820;9.354;2024-01-11T14:20:55;26.00;27.80
1329;DHT22;658;48.820;9.354;2024-01-11T14:24:55;26.00;27.90
1329;DHT22;658;48.820;9.354;2024-01-11T14:28:56;26.00;27.70
1329;DHT22;658;48.820;9.354;2024-01-11T14:32:57;26.00;28.00
1329;DHT22;658;48.820;9.354;2024-01-11T14:36:57;25.90;28.20
1329;DHT22;658;48.820;9.354;2024-01-11T14:40:58;26.00;28.10
1329;DHT22;658;48.820;9.354;2024-01-11T14:44:59;26.00;28.00
1329;DHT22;658;48.820;9.354;2024-01-11T14:48:59;26.00;27.90
1329;DHT22;658;48.820;9.354;2024-01-11T14:53:04;25.90;27.60
1329;DHT22;658;48.820;9.354;2024-01-11T14:57:06;25.80;27.70
1329;DHT22;658;48.820;9.354;2024-01-11T15:01:06;25.70;27.70
1329;DHT22;658;48.820;9.354;2024-01-11T15:05:09;25.60;27.70
1329;DHT22;658;48.820;9.354;2024-01-11T15:09:10;25.50;27.70
1329;DHT22;658;48.820;9.354;2024-01-11T15:13:12;25.40;27.50
1329;DHT22;658;48.820;9.354;2024-01-11T15:17:13;25.30;27.50
1329;DHT22;658;48.820;9.354;2024-01-11T15:21:14;25.20;27.90
1329;DHT22;658;48.820;9.354;2024-01-11T15:25:14;25.10;27.90
1329;DHT22;658;48.820;9.354;2024-01-11T15:29:15;25.10;27.90
1329;DHT22;658;48.820;9.354;2024-01-11T15:33:16;25.00;28.20
1329;DHT22;658;48.820;9.354;2024-01-11T15:37:17;25.00;28.10
1329;DHT22;658;48.820;9.354;2024-01-11T15:41:19;24.90;28.00
1329;DHT22;658;48.820;9.354;2024-01-11T15:45:20;24.80;28.30
1329;DHT22;658;48.820;9.354;2024-01-11T15:49:25;24.80;28.20
1329;DHT22;658;48.820;9.354;2024-01-11T15:53:27;24.80;28.40
1329;DHT22;658;48.820;9.354;2024-01-11T15:57:30;24.70;28.40
1329;DHT22;658;48.820;9.354;2024-01-11T16:01:30;24.60;28.40
1329;DHT22;658;48.820;9.354;2024-01-11T16:05:33;24.60;28.50
1329;DHT22;658;48.820;9.354;2024-01-11T16:09:33;24.50;28.60
1329;DHT22;658;48.820;9.354;2024-01-11T16:13:34;24.50;28.60
1329;DHT22;658;48.820;9.354;2024-01-11T16:17:35;24.40;28.70
1329;DHT22;658;48.820;9.354;2024-01-11T16:21:36;24.30;27.50
1329;DHT22;658;48.820;9.354;2024-01-11T16:25:39;24.30;28.50
1329;DHT22;658;48.820;9.354;2024-01-11T16:29:40;24.20;28.50
1329;DHT22;658;48.820;9.354;2024-01-11T16:33:41;24.20;28.50
1329;DHT22;658;48.820;9.354;2024-01-11T16:37:41;24.20;28.50
1329;DHT22;658;48.820;9.354;2024-01-11T16:41:42;24.20;28.80
1329;DHT22;658;48.820;9.354;2024-01-11T16:45:44;24.10;28.70
1329;DHT22;658;48.820;9.354;2024-01-11T16:49:45;24.10;28.60
1329;DHT22;658;48.820;9.354;2024-01-11T16:53:45;24.10;28.50
1329;DHT22;658;48.820;9.354;2024-01-11T16:57:46;24.10;28.60
1329;DHT22;658;48.820;9.354;2024-01-11T17:01:46;24.00;28.70
1329;DHT22;658;48.820;9.354;2024-01-11T17:05:47;23.90;28.40
1329;DHT22;658;48.820;9.354;2024-01-11T17:09:48;23.90;28.50
1329;DHT22;658;48.820;9.354;2024-01-11T17:13:48;23.80;28.50
1329;DHT22;658;48.820;9.354;2024-01-11T17:17:49;23.80;28.50
1329;DHT22;658;48.820;9.354;2024-01-11T17:21:49;23.80;29.00
1329;DHT22;658;48.820;9.354;2024-01-11T17:25:50;23.80;29.00
1329;DHT22;658;48.820;9.354;2024-01-11T17:29:51;23.80;29.10
1329;DHT22;658;48.820;9.354;2024-01-11T17:33:56;23.80;29.10
1329;DHT22;658;48.820;9.354;2024-01-11T17:37:56;23.80;29.20
1329;DHT22;658;48.820;9.354;2024-01-11T17:41:57;23.80;29.20
1329;DHT22;658;48.820;9.354;2024-01-11T17:46:04;23.80;29.20
1329;DHT22;658;48.820;9.354;2024-01-11T17:50:05;23.70;29.20
1329;DHT22;658;48.820;9.354;2024-01-11T17:54:08;23.70;29.30
1329;DHT22;658;48.820;9.354;2024-01-11T17:58:09;23.60;29.40
1329;DHT22;658;48.820;9.354;2024-01-11T18:02:10;23.60;29.50
1329;DHT22;658;48.820;9.354;2024-01-11T18:06:10;23.50;29.50
1329;DHT22;658;48.820;9.354;2024-01-11T18:10:11;23.50;29.60
1329;DHT22;658;48.820;9.354;2024-01-11T18:14:12;23.50;29.60
1329;DHT22;658;48.820;9.354;2024-01-11T18:18:13;23.40;29.60
1329;DHT22;658;48.820;9.354;2024-01-11T18:22:14;23.40;29.70
1329;DHT22;658;48.820;9.354;2024-01-11T18:26:16;23.40;29.90
1329;DHT22;658;48.820;9.354;2024-01-11T18:30:17;23.40;29.90
1329;DHT22;658;48.820;9.354;2024-01-11T18:34:18;23.40;30.00
1329;DHT22;658;48.820;9.354;2024-01-11T18:38:19;23.40;29.90
1329;DHT22;658;48.820;9.354;2024-01-11T18:42:25;23.40;30.10
1329;DHT22;658;48.820;9.354;2024-01-11T18:46:27;23.40;29.90
1329;DHT22;658;48.820;9.354;2024-01-11T18:50:28;23.40;29.90
1329;DHT22;658;48.820;9.354;2024-01-11T18:54:31;23.40;29.90
1329;DHT22;658;48.820;9.354;2024-01-11T18:58:32;23.40;30.00
1329;DHT22;658;48.820;9.354;2024-01-11T19:02:34;23.50;29.90
1329;DHT22;658;48.820;9.354;2024-01-11T19:06:35;23.50;29.80
1329;DHT22;658;48.820;9.354;2024-01-11T19:10:38;23.40;29.90
1329;DHT22;658;48.820;9.354;2024-01-11T19:14:39;23.40;29.90
1329;DHT22;658;48.820;9.354;2024-01-11T19:18:42;23.40;29.80
1329;DHT22;658;48.820;9.354;2024-01-11T19:22:43;23.30;29.70
1329;DHT22;658;48.820;9.354;2024-01-11T19:26:43;23.30;29.70
1329;DHT22;658;48.820;9.354;2024-01-11T19:30:48;23.30;29.70
1329;DHT22;658;48.820;9.354;2024-01-11T19:34:48;23.30;29.70
1329;DHT22;658;48.820;9.354;2024-01-11T19:38:51;23.30;29.60
1329;DHT22;658;48.820;9.354;2024-01-11T19:42:57;23.20;29.60
1329;DHT22;658;48.820;9.354;2024-01-11T19:46:58;23.20;29.70
1329;DHT22;658;48.820;9.354;2024-01-11T19:51:02;23.20;29.70
1329;DHT22;658;48.820;9.354;2024-01-11T19:55:03;23.20;29.90
1329;DHT22;658;48.820;9.354;2024-01-11T19:59:04;23.20;29.80
1329;DHT22;658;48.820;9.354;2024-01-11T20:03:04;23.10;30.00
1329;DHT22;658;48.820;9.354;2024-01-11T20:07:05;23.10;30.00
1329;DHT22;658;48.820;9.354;2024-01-11T20:11:06;23.10;30.00
1329;DHT22;658;48.820;9.354;2024-01-11T20:15:07;23.10;29.90
1329;DHT22;658;48.820;9.354;2024-01-11T20:19:09;23.20;30.00
1329;DHT22;658;48.820;9.354;2024-01-11T20:23:11;23.20;30.00
1329;DHT22;658;48.820;9.354;2024-01-11T20:27:12;23.20;30.00
1329;DHT22;658;48.820;9.354;2024-01-11T20:31:13;23.20;30.00
1329;DHT22;658;48.820;9.354;2024-01-11T20:35:16;23.20;30.00
1329;DHT22;658;48.820;9.354;2024-01-11T20:39:17;23.10;30.00
1329;DHT22;658;48.820;9.354;2024-01-11T20:43:18;23.10;30.10
1329;DHT22;658;48.820;9.354;2024-01-11T20:47:22;23.00;30.10
1329;DHT22;658;48.820;9.354;2024-01-11T20:51:23;23.00;30.20
1329;DHT22;658;48.820;9.354;2024-01-11T20:55:24;23.00;30.20
1329;DHT22;658;48.820;9.354;2024-01-11T20:59:24;23.00;30.30
1329;DHT22;658;48.820;9.354;2024-01-11T21:03:25;23.00;30.20
1329;DHT22;658;48.820;9.354;2024-01-11T21:07:26;22.90;30.20
1329;DHT22;658;48.820;9.354;2024-01-11T21:11:29;22.90;30.20
1329;DHT22;658;48.820;9.354;2024-01-11T21:15:29;22.90;30.60
1329;DHT22;658;48.820;9.354;2024-01-11T21:19:32;23.00;30.40
1329;DHT22;658;48.820;9.354;2024-01-11T21:23:33;22.90;30.70
1329;DHT22;658;48.820;9.354;2024-01-11T21:27:36;22.90;30.30
1329;DHT22;658;48.820;9.354;2024-01-11T21:31:37;22.90;30.30
1329;DHT22;658;48.820;9.354;2024-01-11T21:35:38;22.80;30.30
1329;DHT22;658;48.820;9.354;2024-01-11T21:39:39;22.70;30.20
1329;DHT22;658;48.820;9.354;2024-01-11T21:43:40;22.70;30.10
1329;DHT22;658;48.820;9.354;2024-01-11T21:47:40;22.70;30.10
1329;DHT22;658;48.820;9.354;2024-01-11T21:51:41;22.70;30.00
1329;DHT22;658;48.820;9.354;2024-01-11T21:55:41;22.60;30.00
1329;DHT22;658;48.820;9.354;2024-01-11T21:59:42;22.60;30.00
1329;DHT22;658;48.820;9.354;2024-01-11T22:03:45;22.60;30.00
1329;DHT22;658;48.820;9.354;2024-01-11T22:07:48;22.60;30.00
1329;DHT22;658;48.820;9.354;2024-01-11T22:11:49;22.60;30.00
1329;DHT22;658;48.820;9.354;2024-01-11T22:15:50;22.50;29.90
1329;DHT22;658;48.820;9.354;2024-01-11T22:19:50;22.50;29.90
1329;DHT22;658;48.820;9.354;2024-01-11T22:23:51;22.40;30.20
1329;DHT22;658;48.820;9.354;2024-01-11T22:27:52;22.40;29.90
1329;DHT22;658;48.820;9.354;2024-01-11T22:31:52;22.40;29.90
1329;DHT22;658;48.820;9.354;2024-01-11T22:35:54;22.40;29.90
1329;DHT22;658;48.820;9.354;2024-01-11T22:39:55;22.30;29.90
1329;DHT22;658;48.820;9.354;2024-01-11T22:43:55;22.20;29.80
1329;DHT22;658;48.820;9.354;2024-01-11T22:47:56;22.30;29.90
1329;DHT22;658;48.820;9.354;2024-01-11T22:52:02;22.20;29.80
1329;DHT22;658;48.820;9.354;2024-01-11T22:56:03;22.10;29.90
1329;DHT22;658;48.820;9.354;2024-01-11T23:00:04;22.10;29.80
1329;DHT22;658;48.820;9.354;2024-01-11T23:04:20;22.10;30.30
1329;DHT22;658;48.820;9.354;2024-01-11T23:08:23;22.10;29.90
1329;DHT22;658;48.820;9.354;2024-01-11T23:12:27;22.00;29.80
1329;DHT22;658;48.820;9.354;2024-01-11T23:16:27;22.00;29.80
1329;DHT22;658;48.820;9.354;2024-01-11T23:20:29;22.00;29.80
1329;DHT22;658;48.820;9.354;2024-01-11T23:24:32;22.00;29.80
1329;DHT22;658;48.820;9.354;2024-01-11T23:28:32;22.00;29.90
1329;DHT22;658;48.820;9.354;2024-01-11T23:32:36;21.90;29.80
1329;DHT22;658;48.820;9.354;2024-01-11T23:36:38;21.90;29.80
1329;DHT22;658;48.820;9.354;2024-01-11T23:40:38;21.90;29.80
1329;DHT22;658;48.820;9.354;2024-01-11T23:44:39;21.90;29.90
1329;DHT22;658;48.820;9.354;2024-01-11T23:48:39;21.90;29.80
1329;DHT22;658;48.820;9.354;2024-01-11T23:52:40;21.90;29.90
1329;DHT22;658;48.820;9.354;2024-01-11T23:56:40;21.90;29.90
